createdAt,value
2022-07-29T00:02:29.353Z,17.50
2022-07-29T00:04:56.082Z,17.60
2022-07-29T00:07:22.927Z,17.60
2022-07-29T00:09:51.820Z,17.60
2022-07-29T00:12:25.382Z,17.40
2022-07-29T00:14:53.939Z,17.40
2022-07-29T00:17:20.614Z,17.40
2022-07-29T00:19:47.254Z,17.40
2022-07-29T00:22:14.215Z,17.40
2022-07-29T00:24:40.911Z,17.30
2022-07-29T00:27:07.563Z,17.30
2022-07-29T00:29:35.013Z,17.30
2022-07-29T00:32:02.968Z,17.20
2022-07-29T00:34:48.573Z,17.20
2022-07-29T00:37:15.227Z,17.20
2022-07-29T00:39:41.851Z,17.20
2022-07-29T00:42:09.012Z,17.10
2022-07-29T00:44:40.234Z,17.10
2022-07-29T07:42:46.005Z,18.20
2022-07-29T07:45:16.219Z,18.40
2022-07-29T07:47:43.892Z,18.50
2022-07-29T07:50:18.495Z,18.60
2022-07-29T07:52:53.652Z,18.70
2022-07-29T07:55:20.811Z,18.60
2022-07-29T07:57:48.153Z,18.80
2022-07-29T08:00:16.531Z,18.80
2022-07-29T08:02:44.143Z,18.90
2022-07-29T08:05:13.018Z,18.90
2022-07-29T08:07:40.237Z,19.00
2022-07-29T08:10:07.832Z,19.10
2022-07-29T08:12:34.736Z,19.10
2022-07-29T08:15:01.692Z,19.20
2022-07-29T08:17:29.034Z,19.40
2022-07-29T08:19:55.891Z,19.60
2022-07-29T08:22:22.724Z,19.70
2022-07-29T08:24:56.730Z,19.50
2022-07-29T08:27:42.507Z,19.70
2022-07-29T08:30:11.408Z,19.60
2022-07-29T08:32:55.043Z,19.50
2022-07-29T08:35:23.939Z,19.60
2022-07-29T08:37:50.987Z,19.60
2022-07-29T08:40:18.037Z,19.60
2022-07-29T08:42:46.219Z,19.70
2022-07-29T08:45:13.862Z,19.80
2022-07-29T08:47:41.057Z,19.80
2022-07-29T08:50:09.803Z,19.90
2022-07-29T08:52:41.354Z,19.90
2022-07-29T08:55:10.048Z,19.90
2022-07-29T08:57:39.648Z,19.90
2022-07-29T09:00:19.370Z,19.90
2022-07-29T09:02:52.755Z,20.30
2022-07-29T09:05:20.452Z,20.30
2022-07-29T09:07:49.073Z,20.40
2022-07-29T09:10:15.971Z,20.50
2022-07-29T09:12:42.937Z,20.60
2022-07-29T09:15:10.062Z,21.00
2022-07-29T09:17:48.387Z,20.90
2022-07-29T09:20:17.163Z,20.70
2022-07-29T09:22:44.830Z,20.80
2022-07-29T09:25:13.320Z,21.00
2022-07-29T09:27:40.261Z,21.30
2022-07-29T09:30:12.529Z,21.40
2022-07-29T09:33:02.360Z,21.60
2022-07-29T09:35:30.481Z,21.60
2022-07-29T09:37:57.730Z,21.70
2022-07-29T09:40:27.541Z,21.90
2022-07-29T09:42:58.175Z,21.90
2022-07-29T09:45:32.599Z,22.10
2022-07-29T09:48:03.925Z,22.10
2022-07-29T09:50:41.636Z,22.30
2022-07-29T09:53:10.547Z,22.60
2022-07-29T09:55:52.770Z,22.70
2022-07-29T09:58:21.720Z,22.80
2022-07-29T10:00:50.702Z,22.80
2022-07-29T10:03:19.157Z,22.80
2022-07-29T10:05:47.175Z,23.00
2022-07-29T10:08:14.123Z,23.00
2022-07-29T10:10:43.213Z,23.20
2022-07-29T10:13:15.764Z,23.50
2022-07-29T10:15:46.439Z,23.70
2022-07-29T10:18:15.103Z,23.70
2022-07-29T10:20:42.411Z,23.70
2022-07-29T10:23:10.216Z,23.70
2022-07-29T10:25:37.165Z,23.90
2022-07-29T10:28:04.214Z,24.00
2022-07-29T10:30:32.593Z,24.30
2022-07-29T10:33:38.453Z,24.40
2022-07-29T10:36:28.135Z,24.50
2022-07-29T10:38:59.876Z,24.60
2022-07-29T10:42:00.003Z,24.60
2022-07-29T10:44:28.275Z,24.50
2022-07-29T10:46:55.993Z,24.70
2022-07-29T10:49:30.288Z,24.90
2022-07-29T10:52:08.977Z,25.20
2022-07-29T10:54:52.556Z,25.10
2022-07-29T10:57:52.470Z,25.00
2022-07-29T11:00:16.664Z,24.70
2022-07-29T11:02:45.933Z,24.90
2022-07-29T11:05:20.599Z,24.80
2022-07-29T11:08:20.500Z,24.90
2022-07-29T11:10:52.514Z,25.20
2022-07-29T11:13:51.003Z,25.10
2022-07-29T11:16:25.271Z,25.60
2022-07-29T11:19:14.165Z,25.60
2022-07-29T11:22:05.550Z,25.90
2022-07-29T11:24:34.950Z,26.10
2022-07-29T11:27:21.235Z,26.00
2022-07-29T11:29:54.789Z,26.20
2022-07-29T11:35:38.020Z,26.20
2022-07-29T11:38:31.839Z,26.40
2022-07-29T11:41:27.946Z,26.40
2022-07-29T11:44:00.006Z,26.40
2022-07-29T11:49:48.167Z,26.50
2022-07-29T11:52:15.310Z,26.60
2022-07-29T11:54:58.127Z,26.60
2022-07-29T11:57:36.075Z,26.80
2022-07-29T12:00:12.649Z,26.70
2022-07-29T12:02:43.987Z,26.50
2022-07-29T12:05:22.157Z,26.80
2022-07-29T12:07:02.023Z,26.40
2022-07-29T12:08:12.513Z,26.80
2022-07-29T12:10:42.774Z,27.00
2022-07-29T12:13:11.256Z,27.10
2022-07-29T12:15:47.007Z,26.90
2022-07-29T12:18:24.352Z,26.90
2022-07-29T12:21:05.078Z,26.80
2022-07-29T12:23:34.364Z,27.00
2022-07-29T12:26:04.997Z,27.30
2022-07-29T12:28:38.999Z,27.50
2022-07-29T12:31:06.140Z,27.40
2022-07-29T12:33:35.831Z,27.50
2022-07-29T12:36:06.739Z,27.70
2022-07-29T12:38:40.807Z,27.30
2022-07-29T12:41:07.760Z,27.80
2022-07-29T12:43:34.462Z,28.00
2022-07-29T12:46:14.009Z,27.90
2022-07-29T12:48:42.748Z,27.50
2022-07-29T12:51:12.446Z,27.70
2022-07-29T12:53:39.507Z,28.10
2022-07-29T12:56:20.547Z,28.20
2022-07-29T12:58:53.963Z,28.70
2022-07-29T13:01:22.317Z,28.20
2022-07-29T13:03:57.391Z,28.10
2022-07-29T13:06:50.899Z,28.60
2022-07-29T13:09:24.142Z,28.80
2022-07-29T13:11:53.060Z,28.90
2022-07-29T13:14:32.866Z,29.30
2022-07-29T13:17:08.423Z,29.20
2022-07-29T13:19:43.958Z,28.50
2022-07-29T13:22:16.048Z,28.20
2022-07-29T13:25:02.995Z,29.00
2022-07-29T13:27:33.041Z,29.30
2022-07-29T13:30:01.687Z,29.50
2022-07-29T13:32:30.934Z,29.50
2022-07-29T13:34:59.503Z,30.00
2022-07-29T13:37:27.277Z,29.90
2022-07-29T13:39:55.126Z,29.10
2022-07-29T13:42:21.817Z,28.30
2022-07-29T13:44:49.683Z,28.50
2022-07-29T13:47:17.115Z,28.50
2022-07-29T13:49:43.823Z,28.50
2022-07-29T13:52:10.456Z,28.30
2022-07-29T13:54:42.136Z,28.20
2022-07-29T13:57:09.819Z,27.70
2022-07-29T13:59:36.453Z,27.70
2022-07-29T14:02:03.416Z,27.70
2022-07-29T14:04:30.204Z,27.90
2022-07-29T14:06:56.943Z,27.90
2022-07-29T14:09:23.851Z,28.10
2022-07-29T14:11:52.215Z,27.90
2022-07-29T14:14:19.303Z,27.80
2022-07-29T14:16:47.873Z,27.90
2022-07-29T14:19:18.723Z,28.00
2022-07-29T14:21:46.349Z,27.80
2022-07-29T14:24:17.741Z,27.70
2022-07-29T14:26:46.370Z,27.80
2022-07-29T14:29:13.287Z,27.60
2022-07-29T14:31:39.984Z,27.50
2022-07-29T14:34:06.650Z,27.40
2022-07-29T14:36:33.321Z,27.50
2022-07-29T14:38:59.912Z,27.40
2022-07-29T14:41:29.073Z,27.40
2022-07-29T14:43:55.916Z,27.30
2022-07-29T14:46:22.838Z,27.30
2022-07-29T14:48:49.564Z,27.40
2022-07-29T14:51:16.452Z,27.90
2022-07-29T14:53:43.223Z,28.30
2022-07-29T14:56:34.165Z,28.00
2022-07-29T14:58:58.279Z,27.80
2022-07-29T15:01:25.732Z,27.60
2022-07-29T15:03:55.711Z,27.60
2022-07-29T15:06:24.784Z,27.70
2022-07-29T15:08:51.430Z,27.90
2022-07-29T15:11:18.056Z,28.10
2022-07-29T15:13:44.906Z,28.10
2022-07-29T15:16:11.667Z,28.10
2022-07-29T15:18:39.206Z,27.70
2022-07-29T15:21:08.729Z,28.00
2022-07-29T15:23:39.529Z,28.20
2022-07-29T15:26:06.360Z,28.00
2022-07-29T15:28:33.036Z,28.20
2022-07-29T15:30:59.802Z,28.20
2022-07-29T15:33:27.071Z,28.20
2022-07-29T15:35:53.698Z,28.50
2022-07-29T15:38:20.439Z,27.90
2022-07-29T15:40:55.772Z,28.10
2022-07-29T15:43:22.762Z,28.20
2022-07-29T15:46:08.266Z,28.00
2022-07-29T15:48:39.122Z,28.30
2022-07-29T15:51:06.144Z,27.90
2022-07-29T15:53:33.099Z,27.70
2022-07-29T15:56:02.110Z,27.70
2022-07-29T15:58:28.831Z,27.60
2022-07-29T16:00:55.531Z,27.60
2022-07-29T16:03:22.892Z,27.50
2022-07-29T16:05:49.549Z,27.50
2022-07-29T16:08:16.268Z,27.70
2022-07-29T16:10:43.062Z,28.00
2022-07-29T16:13:09.663Z,27.90
2022-07-29T16:15:36.552Z,27.80
2022-07-29T16:18:03.415Z,27.40
2022-07-29T16:20:30.168Z,27.20
2022-07-29T16:22:57.090Z,27.00
2022-07-29T16:25:38.432Z,27.30
2022-07-29T16:28:10.723Z,27.20
2022-07-29T16:30:37.493Z,27.30
2022-07-29T16:33:08.192Z,27.20
2022-07-29T16:35:39.813Z,27.00
2022-07-29T16:38:06.742Z,27.10
2022-07-29T16:40:33.360Z,27.00
2022-07-29T16:43:00.146Z,26.80
2022-07-29T16:45:27.018Z,26.80
2022-07-29T16:48:01.129Z,26.80
2022-07-29T16:50:28.906Z,26.90
2022-07-29T16:52:56.325Z,26.80
2022-07-29T16:55:23.747Z,26.70
2022-07-29T16:57:52.676Z,26.50
2022-07-29T17:00:20.917Z,26.60
2022-07-29T17:02:48.184Z,26.20
2022-07-29T17:05:15.768Z,26.30
2022-07-29T17:07:42.748Z,26.40
2022-07-29T17:10:10.236Z,26.10
2022-07-29T17:12:38.989Z,26.30
2022-07-29T17:15:07.339Z,26.00
2022-07-29T17:17:39.283Z,26.00
2022-07-29T17:20:21.199Z,25.80
2022-07-29T17:22:47.872Z,25.90
2022-07-29T17:25:21.035Z,25.80
2022-07-29T17:27:49.687Z,26.00
2022-07-29T17:30:16.762Z,26.10
2022-07-29T17:32:43.443Z,26.00
2022-07-29T17:35:29.077Z,25.90
2022-07-29T17:37:56.131Z,25.90
2022-07-29T17:40:23.277Z,25.90
2022-07-29T17:42:50.403Z,25.90
2022-07-29T17:45:17.211Z,25.70
2022-07-29T17:47:45.139Z,25.40
2022-07-29T17:50:12.156Z,25.10
2022-07-29T17:52:39.115Z,25.40
2022-07-29T17:55:07.512Z,25.40
2022-07-29T17:57:34.290Z,25.50
2022-07-29T18:00:01.010Z,25.50
2022-07-29T18:02:28.515Z,25.40
2022-07-29T18:04:55.505Z,25.70
2022-07-29T18:07:22.327Z,26.20
2022-07-29T18:09:48.980Z,26.40
2022-07-29T18:12:16.007Z,26.60
2022-07-29T18:14:42.696Z,26.70
2022-07-29T18:17:09.482Z,26.70
2022-07-29T18:19:36.310Z,26.70
2022-07-29T18:22:04.901Z,26.90
2022-07-29T18:24:32.478Z,26.90
2022-07-29T18:26:59.694Z,26.60
2022-07-29T18:29:29.107Z,26.40
2022-07-29T18:31:56.460Z,25.80
2022-07-29T18:34:23.413Z,25.40
2022-07-29T18:36:50.205Z,25.20
2022-07-29T18:39:20.323Z,25.10
2022-07-29T18:41:51.738Z,24.80
2022-07-29T18:44:22.525Z,24.80
2022-07-29T18:46:51.054Z,25.00
2022-07-29T18:49:18.639Z,25.10
2022-07-29T18:51:45.437Z,25.00
2022-07-29T18:54:12.220Z,24.80
2022-07-29T18:56:39.118Z,24.90
2022-07-29T18:59:06.169Z,24.60
2022-07-29T19:01:34.074Z,24.60
2022-07-29T19:04:01.390Z,24.60
2022-07-29T19:06:28.237Z,24.60
2022-07-29T19:08:55.177Z,24.50
2022-07-29T19:11:22.073Z,24.40
2022-07-29T19:13:49.235Z,24.40
2022-07-29T19:16:15.963Z,24.20
2022-07-29T19:18:43.503Z,24.20
2022-07-29T19:21:10.657Z,24.00
2022-07-29T19:24:02.422Z,23.80
2022-07-29T19:26:26.425Z,23.80
2022-07-29T19:28:53.365Z,23.80
2022-07-29T19:31:20.514Z,23.70
2022-07-29T19:33:47.473Z,23.60
2022-07-29T19:36:14.307Z,23.60
2022-07-29T19:38:41.454Z,23.60
2022-07-29T19:41:08.703Z,23.50
2022-07-29T19:43:50.563Z,23.40
2022-07-29T19:46:20.174Z,23.30
2022-07-29T19:48:47.330Z,23.20
2022-07-29T19:51:14.202Z,23.10
2022-07-29T19:53:41.446Z,23.10
2022-07-29T19:56:08.928Z,23.00
2022-07-29T19:58:36.369Z,22.80
2022-07-29T20:01:10.402Z,22.80
2022-07-29T20:03:41.828Z,22.80
2022-07-29T20:06:08.874Z,22.70
2022-07-29T20:08:36.121Z,22.60
2022-07-29T20:11:03.381Z,22.60
2022-07-29T20:13:33.203Z,22.60
2022-07-29T20:16:01.210Z,22.60
2022-07-29T20:18:28.524Z,22.50
2022-07-29T20:20:57.528Z,22.40
2022-07-29T20:23:24.443Z,22.40
2022-07-29T20:25:51.197Z,22.30
2022-07-29T20:28:18.232Z,22.30
2022-07-29T20:30:45.215Z,22.20
2022-07-29T20:33:14.785Z,22.10
2022-07-29T20:35:41.765Z,21.90
2022-07-29T20:38:08.676Z,22.00
2022-07-29T20:40:35.799Z,21.90
2022-07-29T20:43:02.633Z,21.80
2022-07-29T20:45:29.309Z,21.80
